createdAt,value
2018-09-24T00:00:52.055Z,94650.73
2018-09-24T00:15:50.434Z,94643.44
2018-09-24T00:30:50.446Z,94612.75
2018-09-24T00:45:51.078Z,94596.84
2018-09-24T01:00:50.844Z,94588.98
2018-09-24T01:15:52.833Z,94576.09
2018-09-24T01:30:52.183Z,94555.98
2018-09-24T01:45:51.177Z,94519.94
2018-09-24T02:00:50.054Z,94530.20
2018-09-24T02:15:52.086Z,94517.77
2018-09-24T02:30:50.183Z,94502.60
2018-09-24T02:45:50.244Z,94499.46
2018-09-24T03:00:50.793Z,94470.80
2018-09-24T03:15:59.164Z,94473.80
2018-09-24T03:30:50.995Z,94472.16
2018-09-24T03:45:50.575Z,94469.34
2018-09-24T04:00:51.468Z,94448.63
2018-09-24T04:15:55.937Z,94452.23
2018-09-24T04:30:56.211Z,94447.42
2018-09-24T04:45:55.970Z,94444.17
2018-09-24T05:00:56.505Z,94436.25
2018-09-24T05:30:56.611Z,94438.74
2018-09-24T05:45:56.495Z,94419.48
2018-09-24T06:00:55.757Z,94424.42
2018-09-24T06:15:55.861Z,94429.42
2018-09-24T06:30:56.311Z,94439.83
2018-09-24T06:45:55.865Z,94442.16
2018-09-24T07:00:58.059Z,94433.38
2018-09-24T07:15:56.193Z,94422.34
2018-09-24T07:30:56.005Z,94410.98
2018-09-24T07:45:56.051Z,94403.89
2018-09-24T08:00:56.524Z,94392.13
2018-09-24T08:15:56.437Z,94381.78
2018-09-24T08:31:00.308Z,94381.58
2018-09-24T08:45:56.597Z,94365.41
2018-09-24T09:00:55.724Z,94373.53
2018-09-24T09:15:55.713Z,94361.34
2018-09-24T09:30:55.847Z,94356.05
2018-09-24T09:45:55.849Z,94345.61
2018-09-24T10:00:56.263Z,94322.64
2018-09-24T10:15:56.095Z,94304.78
2018-09-24T10:30:56.100Z,94299.52
2018-09-24T10:45:56.458Z,94278.17
2018-09-24T11:15:56.493Z,94263.16
2018-09-24T11:30:57.001Z,94272.41
2018-09-24T11:45:56.372Z,94296.36
2018-09-24T12:00:58.263Z,94403.36
2018-09-24T12:15:55.808Z,94467.05
2018-09-24T12:30:55.710Z,94550.87
2018-09-24T12:45:56.040Z,94577.23
2018-09-24T13:00:56.159Z,94606.23
2018-09-24T13:15:56.304Z,94664.82
2018-09-24T13:30:56.388Z,94716.73
2018-09-24T13:45:56.157Z,94740.08
2018-09-24T14:00:56.445Z,94734.06
2018-09-24T14:30:56.678Z,94773.53
2018-09-24T14:45:58.720Z,94800.25
2018-09-24T15:00:57.800Z,94835.99
2018-09-24T16:30:56.164Z,95017.17
2018-09-24T16:45:56.187Z,95042.67
2018-09-24T17:00:57.453Z,95062.51
2018-09-24T17:15:56.511Z,95093.68
2018-09-24T17:45:56.650Z,95127.39
2018-09-24T18:00:55.922Z,95140.76
2018-09-24T18:15:55.946Z,95182.34
2018-09-24T18:30:55.905Z,95202.41
2018-09-24T18:45:55.717Z,95228.47
2018-09-24T19:00:58.218Z,95252.05
2018-09-24T19:15:58.174Z,95281.69
2018-09-24T19:30:57.703Z,95283.64
2018-09-24T19:45:56.248Z,95298.73
2018-09-24T20:00:56.492Z,95303.45
2018-09-24T20:15:56.534Z,95323.74
2018-09-24T20:30:58.725Z,95324.81
2018-09-24T20:45:56.503Z,95362.44
2018-09-24T21:00:55.837Z,95370.59
2018-09-24T21:15:55.835Z,95374.62
2018-09-24T21:30:55.827Z,95388.33
2018-09-24T21:45:55.872Z,95387.77
2018-09-24T22:00:58.193Z,95400.31
2018-09-24T22:15:57.255Z,95411.20
2018-09-24T22:30:58.454Z,95419.69
2018-09-24T22:45:55.990Z,95423.64
2018-09-24T23:00:56.377Z,95429.70
2018-09-24T23:15:56.434Z,95446.30
2018-09-24T23:30:56.491Z,95460.77
2018-09-24T23:45:56.422Z,95461.60
